AFR6002 LFMD-LFBE
Flight info
| Callsign | AFR6002 |
|---|---|
| Flight time | 0h 58m |
| Altitude | 30000 |
| Route | RUBIT DCT TRETS DCT ETOMA DCT BADAM DCT IBDER DCT IBE27 DCT BE090 DCT 4447N00024E DCT BE280 DCT BE270 DCT D274C |
| Aircraft | A20N/M-VGDW/C |
Departure
| Time | 2026-05-05 18:57 |
|---|---|
| Airport | Cannes Mandelieu Airport (LFMD) |
Arrival
| Time | 2026-05-05 19:56 |
|---|---|
| Airport | Bergerac Dordogne-Périgord airport (LFBE) |
| Time | Latitude | Longitude | Altitude | Speed | Heading |
|---|---|---|---|---|---|
| 2026-05-05 18:35 | 43.54737 | 6.95354 | 22 ft | 0 kts | 171° |
| 2026-05-05 18:51 | 43.54734 | 6.95353 | 22 ft | 1 kts | 188° |
| 2026-05-05 18:51 | 43.54731 | 6.95344 | 22 ft | 1 kts | 242° |
| 2026-05-05 18:51 | 43.54734 | 6.95332 | 24 ft | 3 kts | 288° |
| 2026-05-05 18:52 | 43.54752 | 6.95286 | 23 ft | 8 kts | 304° |
| 2026-05-05 18:52 | 43.54813 | 6.95252 | 22 ft | 11 kts | 353° |
| 2026-05-05 18:52 | 43.54899 | 6.95227 | 24 ft | 14 kts | 355° |
| 2026-05-05 18:52 | 43.55006 | 6.95213 | 22 ft | 17 kts | 353° |
| 2026-05-05 18:53 | 43.55130 | 6.95199 | 24 ft | 19 kts | 353° |
| 2026-05-05 18:53 | 43.55271 | 6.95166 | 22 ft | 22 kts | 352° |
| 2026-05-05 18:53 | 43.55408 | 6.95143 | 22 ft | 12 kts | 344° |
| 2026-05-05 18:53 | 43.55417 | 6.95134 | 23 ft | 0 kts | 323° |
| 2026-05-05 18:54 | 43.55418 | 6.95133 | 23 ft | 1 kts | 323° |
| 2026-05-05 18:54 | 43.55431 | 6.95111 | 26 ft | 5 kts | 306° |
| 2026-05-05 18:55 | 43.55435 | 6.95077 | 25 ft | 0 kts | 259° |
| 2026-05-05 18:55 | 43.55434 | 6.95076 | 26 ft | 1 kts | 259° |
| 2026-05-05 18:56 | 43.55427 | 6.95023 | 24 ft | 9 kts | 259° |
| 2026-05-05 18:56 | 43.55397 | 6.94984 | 23 ft | 0 kts | 181° |
| 2026-05-05 18:56 | 43.55366 | 6.94989 | 23 ft | 28 kts | 173° |
| 2026-05-05 18:56 | 43.54849 | 6.95084 | 20 ft | 117 kts | 172° |
| 2026-05-05 18:57 | 43.53860 | 6.95256 | 367 ft | 151 kts | 173° |
| 2026-05-05 18:57 | 43.52809 | 6.95382 | 1264 ft | 152 kts | 175° |
| 2026-05-05 18:57 | 43.51720 | 6.95519 | 1937 ft | 174 kts | 165° |
| 2026-05-05 18:57 | 43.50493 | 6.96321 | 2019 ft | 214 kts | 148° |
| 2026-05-05 18:58 | 43.49175 | 6.97468 | 2014 ft | 243 kts | 148° |
| 2026-05-05 18:58 | 43.47785 | 6.98937 | 2004 ft | 256 kts | 132° |
| 2026-05-05 18:58 | 43.46679 | 7.00865 | 2001 ft | 257 kts | 125° |
| 2026-05-05 18:58 | 43.45645 | 7.02866 | 2001 ft | 257 kts | 126° |
| 2026-05-05 18:59 | 43.44583 | 7.04814 | 1999 ft | 257 kts | 128° |
| 2026-05-05 18:59 | 43.43458 | 7.06736 | 1997 ft | 257 kts | 130° |
| 2026-05-05 18:59 | 43.42302 | 7.08615 | 1998 ft | 257 kts | 131° |
| 2026-05-05 18:59 | 43.41128 | 7.10477 | 1993 ft | 257 kts | 131° |
| 2026-05-05 19:00 | 43.40001 | 7.12393 | 1989 ft | 257 kts | 120° |
| 2026-05-05 19:00 | 43.39457 | 7.14730 | 1991 ft | 259 kts | 101° |
| 2026-05-05 19:00 | 43.39148 | 7.17170 | 1988 ft | 259 kts | 94° |
| 2026-05-05 19:00 | 43.39433 | 7.19570 | 1991 ft | 260 kts | 66° |
| 2026-05-05 19:01 | 43.40535 | 7.21519 | 1993 ft | 261 kts | 37° |
| 2026-05-05 19:01 | 43.42184 | 7.22497 | 1985 ft | 261 kts | 7° |
| 2026-05-05 19:01 | 43.43968 | 7.22258 | 1994 ft | 260 kts | 339° |
| 2026-05-05 19:01 | 43.45443 | 7.20863 | 1993 ft | 259 kts | 309° |
| 2026-05-05 19:02 | 43.46233 | 7.18666 | 1997 ft | 259 kts | 280° |
| 2026-05-05 19:02 | 43.46393 | 7.16195 | 2000 ft | 259 kts | 273° |
| 2026-05-05 19:02 | 43.46523 | 7.13720 | 1993 ft | 259 kts | 273° |
| 2026-05-05 19:02 | 43.46263 | 7.11296 | 2001 ft | 259 kts | 246° |
| 2026-05-05 19:03 | 43.45418 | 7.09108 | 2008 ft | 260 kts | 238° |
| 2026-05-05 19:03 | 43.44426 | 7.07015 | 2336 ft | 262 kts | 235° |
| 2026-05-05 19:03 | 43.43400 | 7.04944 | 3298 ft | 260 kts | 235° |
| 2026-05-05 19:03 | 43.42399 | 7.02902 | 4620 ft | 257 kts | 234° |
| 2026-05-05 19:04 | 43.41400 | 7.00838 | 5725 ft | 262 kts | 235° |
| 2026-05-05 19:04 | 43.40392 | 6.98734 | 6826 ft | 265 kts | 236° |
| 2026-05-05 19:04 | 43.39381 | 6.96615 | 7948 ft | 266 kts | 236° |
| 2026-05-05 19:04 | 43.38366 | 6.94480 | 9074 ft | 268 kts | 236° |
| 2026-05-05 19:05 | 43.37356 | 6.92356 | 10144 ft | 270 kts | 236° |
| 2026-05-05 19:05 | 43.36297 | 6.90133 | 10805 ft | 288 kts | 236° |
| 2026-05-05 19:05 | 43.35152 | 6.87735 | 11246 ft | 311 kts | 236° |
| 2026-05-05 19:05 | 43.33943 | 6.85202 | 11998 ft | 319 kts | 236° |
| 2026-05-05 19:06 | 43.32725 | 6.82650 | 13067 ft | 320 kts | 236° |
| 2026-05-05 19:06 | 43.31502 | 6.80085 | 14031 ft | 322 kts | 236° |
| 2026-05-05 19:06 | 43.30266 | 6.77497 | 14875 ft | 326 kts | 235° |
| 2026-05-05 19:06 | 43.29015 | 6.74883 | 15699 ft | 330 kts | 235° |
| 2026-05-05 19:07 | 43.27753 | 6.72253 | 16512 ft | 334 kts | 235° |
| 2026-05-05 19:07 | 43.26459 | 6.69559 | 17341 ft | 338 kts | 235° |
| 2026-05-05 19:07 | 43.25155 | 6.66849 | 18133 ft | 342 kts | 234° |
| 2026-05-05 19:07 | 43.23839 | 6.64113 | 18875 ft | 345 kts | 236° |
| 2026-05-05 19:08 | 43.22745 | 6.61157 | 19635 ft | 350 kts | 246° |
| 2026-05-05 19:08 | 43.22120 | 6.57910 | 20349 ft | 357 kts | 257° |
| 2026-05-05 19:08 | 43.22000 | 6.54516 | 21045 ft | 365 kts | 266° |
| 2026-05-05 19:08 | 43.22072 | 6.51031 | 21781 ft | 367 kts | 266° |
| 2026-05-05 19:09 | 43.22134 | 6.47519 | 22493 ft | 370 kts | 266° |
| 2026-05-05 19:09 | 43.22269 | 6.43972 | 23157 ft | 377 kts | 271° |
| 2026-05-05 19:09 | 43.22705 | 6.40400 | 23777 ft | 384 kts | 277° |
| 2026-05-05 19:09 | 43.23463 | 6.36859 | 24403 ft | 390 kts | 283° |
| 2026-05-05 19:10 | 43.24453 | 6.33380 | 25024 ft | 393 kts | 284° |
| 2026-05-05 19:10 | 43.25450 | 6.29888 | 25639 ft | 394 kts | 284° |
| 2026-05-05 19:10 | 43.26442 | 6.26385 | 26214 ft | 395 kts | 283° |
| 2026-05-05 19:10 | 43.27440 | 6.22842 | 26700 ft | 398 kts | 283° |
| 2026-05-05 19:11 | 43.28439 | 6.19292 | 27246 ft | 400 kts | 283° |
| 2026-05-05 19:11 | 43.29440 | 6.15731 | 27803 ft | 401 kts | 283° |
| 2026-05-05 19:11 | 43.30447 | 6.12148 | 28342 ft | 402 kts | 282° |
| 2026-05-05 19:11 | 43.31442 | 6.08600 | 28814 ft | 405 kts | 282° |
| 2026-05-05 19:12 | 43.32456 | 6.04978 | 29279 ft | 407 kts | 282° |
| 2026-05-05 19:12 | 43.33473 | 6.01340 | 29715 ft | 409 kts | 282° |
| 2026-05-05 19:12 | 43.34492 | 5.97692 | 29888 ft | 410 kts | 282° |
| 2026-05-05 19:12 | 43.35512 | 5.94032 | 29922 ft | 411 kts | 282° |
| 2026-05-05 19:13 | 43.37548 | 5.86722 | 29921 ft | 409 kts | 282° |
| 2026-05-05 19:13 | 43.39584 | 5.79380 | 29912 ft | 410 kts | 282° |
| 2026-05-05 19:14 | 43.41611 | 5.72056 | 29916 ft | 411 kts | 282° |
| 2026-05-05 19:14 | 43.43846 | 5.64828 | 29913 ft | 414 kts | 284° |
| 2026-05-05 19:15 | 43.46160 | 5.57573 | 29911 ft | 413 kts | 284° |
| 2026-05-05 19:15 | 43.48442 | 5.50288 | 29911 ft | 414 kts | 284° |
| 2026-05-05 19:16 | 43.50708 | 5.42985 | 29911 ft | 415 kts | 284° |
| 2026-05-05 19:16 | 43.52970 | 5.35673 | 29914 ft | 415 kts | 284° |
| 2026-05-05 19:17 | 43.55229 | 5.28353 | 29914 ft | 416 kts | 284° |
| 2026-05-05 19:17 | 43.57475 | 5.21052 | 29914 ft | 417 kts | 284° |
| 2026-05-05 19:18 | 43.59739 | 5.13674 | 29919 ft | 418 kts | 284° |
| 2026-05-05 19:18 | 43.62001 | 5.06281 | 29914 ft | 419 kts | 284° |
| 2026-05-05 19:19 | 43.64270 | 4.98839 | 29917 ft | 427 kts | 284° |
| 2026-05-05 19:19 | 43.65428 | 4.95013 | 29914 ft | 438 kts | 284° |
| 2026-05-05 19:19 | 43.66618 | 4.91084 | 29909 ft | 448 kts | 285° |
| 2026-05-05 19:20 | 43.68832 | 4.83045 | 29910 ft | 447 kts | 281° |
| 2026-05-05 19:20 | 43.70857 | 4.74898 | 29907 ft | 448 kts | 282° |
| 2026-05-05 19:21 | 43.72543 | 4.68118 | 29911 ft | 449 kts | 282° |
| 2026-05-05 19:21 | 43.73808 | 4.63001 | 29913 ft | 450 kts | 282° |
| 2026-05-05 19:22 | 43.75486 | 4.56185 | 29908 ft | 451 kts | 282° |
| 2026-05-05 19:22 | 43.77501 | 4.47969 | 29915 ft | 451 kts | 282° |
| 2026-05-05 19:23 | 43.79515 | 4.39730 | 29910 ft | 452 kts | 282° |
| 2026-05-05 19:23 | 43.81524 | 4.31478 | 29915 ft | 453 kts | 282° |
| 2026-05-05 19:24 | 43.83532 | 4.23202 | 29911 ft | 454 kts | 281° |
| 2026-05-05 19:24 | 43.85540 | 4.14896 | 29908 ft | 455 kts | 281° |
| 2026-05-05 19:25 | 43.87546 | 4.06571 | 29907 ft | 456 kts | 281° |
| 2026-05-05 19:25 | 43.89550 | 3.98219 | 29915 ft | 457 kts | 281° |
| 2026-05-05 19:26 | 43.91553 | 3.89844 | 29912 ft | 458 kts | 281° |
| 2026-05-05 19:26 | 43.93554 | 3.81441 | 29915 ft | 459 kts | 281° |
| 2026-05-05 19:27 | 43.95552 | 3.73019 | 29915 ft | 459 kts | 281° |
| 2026-05-05 19:27 | 43.97548 | 3.64579 | 29914 ft | 460 kts | 281° |
| 2026-05-05 19:28 | 43.99525 | 3.56181 | 29915 ft | 461 kts | 281° |
| 2026-05-05 19:28 | 44.01518 | 3.47689 | 29919 ft | 462 kts | 281° |
| 2026-05-05 19:29 | 44.03508 | 3.39175 | 29923 ft | 463 kts | 281° |
| 2026-05-05 19:29 | 44.05492 | 3.30647 | 29933 ft | 464 kts | 281° |
| 2026-05-05 19:30 | 44.07475 | 3.22102 | 29936 ft | 465 kts | 281° |
| 2026-05-05 19:30 | 44.09512 | 3.13546 | 29935 ft | 468 kts | 284° |
| 2026-05-05 19:31 | 44.11927 | 3.05167 | 29933 ft | 470 kts | 286° |
| 2026-05-05 19:31 | 44.14380 | 2.96720 | 29935 ft | 470 kts | 285° |
| 2026-05-05 19:32 | 44.16777 | 2.88252 | 29937 ft | 470 kts | 285° |
| 2026-05-05 19:32 | 44.19157 | 2.79759 | 29941 ft | 469 kts | 286° |
| 2026-05-05 19:33 | 44.21528 | 2.71262 | 29942 ft | 470 kts | 286° |
| 2026-05-05 19:33 | 44.23893 | 2.62760 | 29939 ft | 470 kts | 286° |
| 2026-05-05 19:34 | 44.26236 | 2.54304 | 29942 ft | 470 kts | 287° |
| 2026-05-05 19:35 | 44.29765 | 2.41521 | 29941 ft | 470 kts | 287° |
| 2026-05-05 19:35 | 44.32110 | 2.32994 | 29787 ft | 469 kts | 287° |
| 2026-05-05 19:35 | 44.33274 | 2.28750 | 29503 ft | 467 kts | 287° |
| 2026-05-05 19:36 | 44.34434 | 2.24513 | 29218 ft | 465 kts | 287° |
| 2026-05-05 19:36 | 44.35588 | 2.20292 | 28937 ft | 464 kts | 287° |
| 2026-05-05 19:36 | 44.36721 | 2.16138 | 28660 ft | 463 kts | 287° |
| 2026-05-05 19:36 | 44.37864 | 2.11938 | 28374 ft | 461 kts | 287° |
| 2026-05-05 19:37 | 44.39002 | 2.07752 | 27785 ft | 460 kts | 287° |
| 2026-05-05 19:37 | 44.40132 | 2.03591 | 27139 ft | 456 kts | 287° |
| 2026-05-05 19:37 | 44.41252 | 1.99462 | 26500 ft | 451 kts | 287° |
| 2026-05-05 19:37 | 44.42358 | 1.95374 | 25863 ft | 448 kts | 287° |
| 2026-05-05 19:38 | 44.43456 | 1.91306 | 25238 ft | 445 kts | 287° |
| 2026-05-05 19:38 | 44.44544 | 1.87270 | 24600 ft | 441 kts | 287° |
| 2026-05-05 19:38 | 44.45621 | 1.83265 | 23958 ft | 438 kts | 287° |
| 2026-05-05 19:38 | 44.46174 | 1.81208 | 23635 ft | 435 kts | 287° |
| 2026-05-05 19:39 | 44.47194 | 1.77408 | 22974 ft | 431 kts | 287° |
| 2026-05-05 19:39 | 44.48238 | 1.73511 | 22353 ft | 425 kts | 287° |
| 2026-05-05 19:39 | 44.49254 | 1.69713 | 21740 ft | 419 kts | 287° |
| 2026-05-05 19:39 | 44.50270 | 1.65909 | 21120 ft | 414 kts | 287° |
| 2026-05-05 19:40 | 44.51272 | 1.62151 | 20508 ft | 410 kts | 287° |
| 2026-05-05 19:40 | 44.52264 | 1.58422 | 19904 ft | 405 kts | 287° |
| 2026-05-05 19:40 | 44.53241 | 1.54746 | 19300 ft | 399 kts | 287° |
| 2026-05-05 19:40 | 44.54206 | 1.51111 | 18685 ft | 395 kts | 288° |
| 2026-05-05 19:41 | 44.55159 | 1.47513 | 18123 ft | 392 kts | 288° |
| 2026-05-05 19:41 | 44.56101 | 1.43950 | 17473 ft | 387 kts | 288° |
| 2026-05-05 19:41 | 44.57030 | 1.40436 | 16879 ft | 383 kts | 288° |
| 2026-05-05 19:41 | 44.57953 | 1.36929 | 16294 ft | 383 kts | 288° |
| 2026-05-05 19:42 | 44.58870 | 1.33446 | 15709 ft | 378 kts | 288° |
| 2026-05-05 19:42 | 44.59776 | 1.30001 | 15121 ft | 374 kts | 288° |
| 2026-05-05 19:42 | 44.60675 | 1.26578 | 14560 ft | 373 kts | 289° |
| 2026-05-05 19:42 | 44.61568 | 1.23173 | 13991 ft | 369 kts | 289° |
| 2026-05-05 19:43 | 44.62439 | 1.19848 | 13401 ft | 368 kts | 289° |
| 2026-05-05 19:43 | 44.63318 | 1.16490 | 12833 ft | 364 kts | 289° |
| 2026-05-05 19:43 | 44.64183 | 1.13180 | 12363 ft | 356 kts | 289° |
| 2026-05-05 19:43 | 44.65013 | 1.10007 | 12062 ft | 336 kts | 289° |
| 2026-05-05 19:44 | 44.65838 | 1.07006 | 11549 ft | 323 kts | 293° |
| 2026-05-05 19:44 | 44.66917 | 1.04281 | 10978 ft | 316 kts | 302° |
| 2026-05-05 19:44 | 44.68248 | 1.01870 | 10413 ft | 309 kts | 310° |
| 2026-05-05 19:44 | 44.69649 | 0.99624 | 9847 ft | 302 kts | 309° |
| 2026-05-05 19:45 | 44.71012 | 0.97415 | 9241 ft | 296 kts | 309° |
| 2026-05-05 19:45 | 44.72345 | 0.95248 | 8705 ft | 288 kts | 309° |
| 2026-05-05 19:45 | 44.73642 | 0.93135 | 8138 ft | 282 kts | 309° |
| 2026-05-05 19:45 | 44.74896 | 0.91092 | 7589 ft | 278 kts | 309° |
| 2026-05-05 19:46 | 44.76149 | 0.89047 | 7036 ft | 274 kts | 309° |
| 2026-05-05 19:46 | 44.77385 | 0.87031 | 6496 ft | 270 kts | 309° |
| 2026-05-05 19:46 | 44.78605 | 0.85040 | 5932 ft | 266 kts | 309° |
| 2026-05-05 19:46 | 44.79804 | 0.83072 | 5369 ft | 263 kts | 307° |
| 2026-05-05 19:47 | 44.80674 | 0.80876 | 5064 ft | 257 kts | 288° |
| 2026-05-05 19:47 | 44.80993 | 0.78385 | 5007 ft | 259 kts | 274° |
| 2026-05-05 19:47 | 44.81120 | 0.75885 | 5003 ft | 249 kts | 274° |
| 2026-05-05 19:47 | 44.81252 | 0.73528 | 4998 ft | 233 kts | 274° |
| 2026-05-05 19:48 | 44.81378 | 0.71312 | 5000 ft | 226 kts | 275° |
| 2026-05-05 19:48 | 44.81504 | 0.69089 | 4997 ft | 225 kts | 274° |
| 2026-05-05 19:48 | 44.81589 | 0.66921 | 4751 ft | 223 kts | 273° |
| 2026-05-05 19:48 | 44.81648 | 0.64742 | 4313 ft | 228 kts | 271° |
| 2026-05-05 19:49 | 44.81677 | 0.62491 | 3883 ft | 232 kts | 268° |
| 2026-05-05 19:49 | 44.81649 | 0.60960 | 3707 ft | 229 kts | 265° |
| 2026-05-05 19:49 | 44.81079 | 0.58273 | 3592 ft | 212 kts | 241° |
| 2026-05-05 19:49 | 44.80225 | 0.56579 | 3273 ft | 211 kts | 236° |
| 2026-05-05 19:50 | 44.79398 | 0.54950 | 2966 ft | 197 kts | 238° |
| 2026-05-05 19:50 | 44.78686 | 0.53424 | 2803 ft | 178 kts | 240° |
| 2026-05-05 19:50 | 44.78075 | 0.51948 | 2517 ft | 167 kts | 244° |
| 2026-05-05 19:50 | 44.77580 | 0.50576 | 2397 ft | 145 kts | 246° |
| 2026-05-05 19:51 | 44.77166 | 0.49365 | 2215 ft | 135 kts | 247° |
| 2026-05-05 19:51 | 44.76754 | 0.48097 | 1936 ft | 148 kts | 248° |
| 2026-05-05 19:51 | 44.76354 | 0.46800 | 1908 ft | 142 kts | 249° |
| 2026-05-05 19:51 | 44.75977 | 0.45531 | 1909 ft | 139 kts | 250° |
| 2026-05-05 19:52 | 44.75623 | 0.44277 | 1875 ft | 136 kts | 252° |
| 2026-05-05 19:52 | 44.75352 | 0.43036 | 1951 ft | 132 kts | 266° |
| 2026-05-05 19:52 | 44.75613 | 0.41743 | 2117 ft | 148 kts | 302° |
| 2026-05-05 19:52 | 44.76458 | 0.40857 | 2267 ft | 158 kts | 338° |
| 2026-05-05 19:53 | 44.77558 | 0.40855 | 2359 ft | 161 kts | 6° |
| 2026-05-05 19:53 | 44.78652 | 0.41229 | 2324 ft | 163 kts | 11° |
| 2026-05-05 19:53 | 44.79732 | 0.41683 | 2057 ft | 164 kts | 13° |
| 2026-05-05 19:53 | 44.80805 | 0.42207 | 1812 ft | 162 kts | 19° |
| 2026-05-05 19:54 | 44.81773 | 0.43055 | 1441 ft | 163 kts | 38° |
| 2026-05-05 19:54 | 44.82459 | 0.44265 | 1174 ft | 156 kts | 62° |
| 2026-05-05 19:54 | 44.82725 | 0.45696 | 956 ft | 143 kts | 85° |
| 2026-05-05 19:54 | 44.82727 | 0.47087 | 783 ft | 147 kts | 95° |
| 2026-05-05 19:55 | 44.82630 | 0.48534 | 534 ft | 149 kts | 95° |
| 2026-05-05 19:55 | 44.82565 | 0.49982 | 333 ft | 146 kts | 95° |
| 2026-05-05 19:55 | 44.82478 | 0.51355 | 182 ft | 134 kts | 95° |
| 2026-05-05 19:55 | 44.82429 | 0.52274 | 175 ft | 50 kts | 93° |
| 2026-05-05 19:56 | 44.82430 | 0.52451 | 172 ft | 7 kts | 66° |
| 2026-05-05 19:56 | 44.82426 | 0.52497 | 171 ft | 2 kts | 176° |
| 2026-05-05 19:56 | 44.82410 | 0.52472 | 171 ft | 9 kts | 251° |
| 2026-05-05 19:56 | 44.82424 | 0.52299 | 174 ft | 26 kts | 274° |
| 2026-05-05 19:57 | 44.82423 | 0.52067 | 178 ft | 10 kts | 232° |
| 2026-05-05 19:57 | 44.82388 | 0.52054 | 177 ft | 10 kts | 185° |
| 2026-05-05 19:57 | 44.82289 | 0.52020 | 178 ft | 8 kts | 228° |
| 2026-05-05 19:57 | 44.82288 | 0.51939 | 178 ft | 10 kts | 279° |
| 2026-05-05 19:58 | 44.82295 | 0.51831 | 179 ft | 13 kts | 275° |
| 2026-05-05 19:58 | 44.82298 | 0.51707 | 179 ft | 0 kts | 274° |
| 2026-05-05 19:59 | 44.82299 | 0.51688 | 179 ft | 6 kts | 274° |
| 2026-05-05 19:59 | 44.82283 | 0.51647 | 179 ft | 4 kts | 177° |
| 2026-05-05 20:00 | 44.82255 | 0.51648 | 179 ft | 0 kts | 179° |